AFL805 LTAI-URMM
Flight info
| Callsign | AFL805 |
|---|---|
| Flight time | 1h 59m |
| Altitude | 35000 |
| Route | EKSEN UA16 KFK UR32 BAG UT61 SIN UW96 ODIRA G487 GUBOR A944 RESLO |
| Aircraft | A320/M-SDE3FGHIRWY/LB1 |
Departure
| Time | 2026-05-05 09:42 |
|---|---|
| Airport | Antalya International Airport (LTAI) |
Arrival
| Time | 2026-05-05 11:41 |
|---|---|
| Airport | Mineralnye Vody Airport (URMM) |
| Time | Latitude | Longitude | Altitude | Speed | Heading |
|---|---|---|---|---|---|
| 2026-05-05 09:23 | 36.91419 | 30.79814 | 191 ft | 0 kts | 274° |
| 2026-05-05 09:31 | 36.91418 | 30.79822 | 208 ft | 4 kts | 275° |
| 2026-05-05 09:31 | 36.91414 | 30.79855 | 199 ft | 4 kts | 281° |
| 2026-05-05 09:31 | 36.91411 | 30.79884 | 199 ft | 4 kts | 283° |
| 2026-05-05 09:31 | 36.91400 | 30.79908 | 206 ft | 4 kts | 345° |
| 2026-05-05 09:32 | 36.91375 | 30.79906 | 201 ft | 4 kts | 14° |
| 2026-05-05 09:32 | 36.91357 | 30.79902 | 202 ft | 0 kts | 5° |
| 2026-05-05 09:34 | 36.91380 | 30.79904 | 202 ft | 10 kts | 5° |
| 2026-05-05 09:34 | 36.91468 | 30.79916 | 191 ft | 12 kts | 6° |
| 2026-05-05 09:34 | 36.91513 | 30.79872 | 196 ft | 10 kts | 275° |
| 2026-05-05 09:35 | 36.91518 | 30.79768 | 191 ft | 14 kts | 275° |
| 2026-05-05 09:35 | 36.91342 | 30.79672 | 191 ft | 19 kts | 186° |
| 2026-05-05 09:35 | 36.91202 | 30.79652 | 191 ft | 22 kts | 184° |
| 2026-05-05 09:36 | 36.91044 | 30.79633 | 205 ft | 24 kts | 187° |
| 2026-05-05 09:36 | 36.90869 | 30.79607 | 191 ft | 26 kts | 186° |
| 2026-05-05 09:36 | 36.90731 | 30.79586 | 194 ft | 17 kts | 186° |
| 2026-05-05 09:36 | 36.90603 | 30.79569 | 202 ft | 20 kts | 186° |
| 2026-05-05 09:37 | 36.90454 | 30.79549 | 191 ft | 23 kts | 185° |
| 2026-05-05 09:37 | 36.90287 | 30.79525 | 191 ft | 26 kts | 186° |
| 2026-05-05 09:37 | 36.90101 | 30.79500 | 191 ft | 28 kts | 186° |
| 2026-05-05 09:37 | 36.89902 | 30.79471 | 191 ft | 30 kts | 186° |
| 2026-05-05 09:38 | 36.89693 | 30.79443 | 192 ft | 31 kts | 187° |
| 2026-05-05 09:38 | 36.89474 | 30.79413 | 206 ft | 32 kts | 186° |
| 2026-05-05 09:38 | 36.89245 | 30.79382 | 198 ft | 34 kts | 186° |
| 2026-05-05 09:38 | 36.89010 | 30.79346 | 192 ft | 35 kts | 188° |
| 2026-05-05 09:39 | 36.88802 | 30.79320 | 193 ft | 26 kts | 182° |
| 2026-05-05 09:39 | 36.88629 | 30.79298 | 194 ft | 23 kts | 187° |
| 2026-05-05 09:39 | 36.88518 | 30.79276 | 198 ft | 15 kts | 211° |
| 2026-05-05 09:39 | 36.88508 | 30.79148 | 196 ft | 17 kts | 284° |
| 2026-05-05 09:40 | 36.88557 | 30.79048 | 191 ft | 12 kts | 2° |
| 2026-05-05 09:40 | 36.88612 | 30.79076 | 202 ft | 0 kts | 11° |
| 2026-05-05 09:41 | 36.88701 | 30.79087 | 196 ft | 38 kts | 5° |
| 2026-05-05 09:41 | 36.89211 | 30.79153 | 193 ft | 106 kts | 6° |
| 2026-05-05 09:41 | 36.90122 | 30.79279 | 199 ft | 156 kts | 6° |
| 2026-05-05 09:41 | 36.91286 | 30.79526 | 542 ft | 173 kts | 3° |
| 2026-05-05 09:42 | 36.92475 | 30.79430 | 1236 ft | 174 kts | 348° |
| 2026-05-05 09:42 | 36.93719 | 30.79160 | 1700 ft | 192 kts | 349° |
| 2026-05-05 09:42 | 36.95097 | 30.78837 | 2039 ft | 217 kts | 349° |
| 2026-05-05 09:42 | 36.96620 | 30.78497 | 2791 ft | 223 kts | 350° |
| 2026-05-05 09:43 | 36.98146 | 30.78208 | 3806 ft | 220 kts | 351° |
| 2026-05-05 09:43 | 36.99627 | 30.77950 | 4832 ft | 213 kts | 351° |
| 2026-05-05 09:43 | 37.01170 | 30.77656 | 5252 ft | 237 kts | 350° |
| 2026-05-05 09:43 | 37.02867 | 30.77306 | 5398 ft | 254 kts | 350° |
| 2026-05-05 09:44 | 37.04617 | 30.76945 | 6275 ft | 256 kts | 351° |
| 2026-05-05 09:44 | 37.06380 | 30.76582 | 7178 ft | 258 kts | 351° |
| 2026-05-05 09:44 | 37.08175 | 30.76208 | 7990 ft | 264 kts | 351° |
| 2026-05-05 09:44 | 37.09994 | 30.75828 | 8821 ft | 268 kts | 351° |
| 2026-05-05 09:45 | 37.11843 | 30.75442 | 9571 ft | 274 kts | 351° |
| 2026-05-05 09:45 | 37.13739 | 30.75065 | 10345 ft | 280 kts | 352° |
| 2026-05-05 09:45 | 37.15756 | 30.74686 | 10631 ft | 304 kts | 352° |
| 2026-05-05 09:45 | 37.17923 | 30.74290 | 10853 ft | 327 kts | 352° |
| 2026-05-05 09:46 | 37.20245 | 30.73866 | 11100 ft | 347 kts | 352° |
| 2026-05-05 09:46 | 37.22676 | 30.73416 | 11610 ft | 357 kts | 352° |
| 2026-05-05 09:46 | 37.25135 | 30.72958 | 12359 ft | 359 kts | 352° |
| 2026-05-05 09:46 | 37.27625 | 30.72490 | 13145 ft | 361 kts | 352° |
| 2026-05-05 09:47 | 37.30122 | 30.72021 | 13851 ft | 366 kts | 352° |
| 2026-05-05 09:47 | 37.32657 | 30.71549 | 14480 ft | 368 kts | 352° |
| 2026-05-05 09:47 | 37.35193 | 30.71081 | 15145 ft | 370 kts | 351° |
| 2026-05-05 09:47 | 37.37752 | 30.70605 | 15779 ft | 371 kts | 351° |
| 2026-05-05 09:48 | 37.40308 | 30.70171 | 16456 ft | 372 kts | 355° |
| 2026-05-05 09:48 | 37.42886 | 30.69990 | 17104 ft | 372 kts | 356° |
| 2026-05-05 09:48 | 37.45482 | 30.69817 | 17808 ft | 372 kts | 356° |
| 2026-05-05 09:48 | 37.48034 | 30.69646 | 18457 ft | 373 kts | 356° |
| 2026-05-05 09:49 | 37.50654 | 30.69472 | 19000 ft | 374 kts | 355° |
| 2026-05-05 09:49 | 37.53230 | 30.69301 | 19545 ft | 375 kts | 356° |
| 2026-05-05 09:49 | 37.55844 | 30.69127 | 20036 ft | 377 kts | 355° |
| 2026-05-05 09:49 | 37.58471 | 30.68948 | 20532 ft | 379 kts | 355° |
| 2026-05-05 09:50 | 37.61114 | 30.68774 | 21031 ft | 381 kts | 355° |
| 2026-05-05 09:50 | 37.63768 | 30.68607 | 21523 ft | 383 kts | 355° |
| 2026-05-05 09:50 | 37.66439 | 30.68442 | 21985 ft | 386 kts | 355° |
| 2026-05-05 09:50 | 37.69136 | 30.68275 | 22428 ft | 387 kts | 355° |
| 2026-05-05 09:51 | 37.71832 | 30.68109 | 22921 ft | 390 kts | 355° |
| 2026-05-05 09:51 | 37.74544 | 30.67941 | 23397 ft | 391 kts | 354° |
| 2026-05-05 09:51 | 37.77269 | 30.67771 | 23816 ft | 394 kts | 355° |
| 2026-05-05 09:51 | 37.80022 | 30.67599 | 24206 ft | 396 kts | 355° |
| 2026-05-05 09:52 | 37.82778 | 30.67426 | 24568 ft | 398 kts | 355° |
| 2026-05-05 09:52 | 37.85561 | 30.67252 | 24947 ft | 400 kts | 355° |
| 2026-05-05 09:52 | 37.88346 | 30.67076 | 25313 ft | 402 kts | 355° |
| 2026-05-05 09:52 | 37.91140 | 30.66838 | 25647 ft | 404 kts | 353° |
| 2026-05-05 09:53 | 37.93949 | 30.66479 | 25971 ft | 405 kts | 352° |
| 2026-05-05 09:53 | 37.96753 | 30.66047 | 26259 ft | 408 kts | 351° |
| 2026-05-05 09:53 | 37.99574 | 30.65586 | 26531 ft | 410 kts | 351° |
| 2026-05-05 09:53 | 38.02413 | 30.65143 | 26817 ft | 412 kts | 352° |
| 2026-05-05 09:54 | 38.05269 | 30.64732 | 27130 ft | 415 kts | 352° |
| 2026-05-05 09:54 | 38.08155 | 30.64343 | 27445 ft | 417 kts | 352° |
| 2026-05-05 09:54 | 38.11040 | 30.63969 | 27853 ft | 417 kts | 352° |
| 2026-05-05 09:54 | 38.13915 | 30.63601 | 28332 ft | 415 kts | 352° |
| 2026-05-05 09:55 | 38.16791 | 30.63231 | 28780 ft | 413 kts | 352° |
| 2026-05-05 09:55 | 38.19646 | 30.62855 | 29216 ft | 412 kts | 352° |
| 2026-05-05 09:55 | 38.22493 | 30.62475 | 29645 ft | 411 kts | 352° |
| 2026-05-05 09:55 | 38.25346 | 30.62093 | 30094 ft | 411 kts | 352° |
| 2026-05-05 09:56 | 38.28143 | 30.61714 | 30469 ft | 409 kts | 352° |
| 2026-05-05 09:56 | 38.31008 | 30.61326 | 30831 ft | 409 kts | 352° |
| 2026-05-05 09:56 | 38.33833 | 30.60946 | 31183 ft | 408 kts | 352° |
| 2026-05-05 09:56 | 38.36656 | 30.60573 | 31518 ft | 408 kts | 352° |
| 2026-05-05 09:57 | 38.39452 | 30.60204 | 31855 ft | 408 kts | 352° |
| 2026-05-05 09:57 | 38.42273 | 30.59830 | 32190 ft | 408 kts | 352° |
| 2026-05-05 09:57 | 38.45127 | 30.59446 | 32561 ft | 407 kts | 352° |
| 2026-05-05 09:57 | 38.47916 | 30.59068 | 32898 ft | 407 kts | 352° |
| 2026-05-05 09:58 | 38.50725 | 30.58690 | 33252 ft | 406 kts | 352° |
| 2026-05-05 09:58 | 38.53532 | 30.58314 | 33580 ft | 406 kts | 352° |
| 2026-05-05 09:58 | 38.56372 | 30.57933 | 33937 ft | 405 kts | 352° |
| 2026-05-05 09:58 | 38.59149 | 30.57562 | 34234 ft | 405 kts | 352° |
| 2026-05-05 09:59 | 38.61952 | 30.57182 | 34480 ft | 406 kts | 352° |
| 2026-05-05 09:59 | 38.64760 | 30.56802 | 34720 ft | 407 kts | 352° |
| 2026-05-05 09:59 | 38.67587 | 30.56421 | 34971 ft | 408 kts | 352° |
| 2026-05-05 09:59 | 38.70412 | 30.56044 | 35070 ft | 410 kts | 352° |
| 2026-05-05 10:00 | 38.76143 | 30.56317 | 35088 ft | 422 kts | 12° |
| 2026-05-05 10:00 | 38.80515 | 30.59246 | 35086 ft | 436 kts | 36° |
| 2026-05-05 10:01 | 38.82595 | 30.62116 | 35085 ft | 446 kts | 50° |
| 2026-05-05 10:01 | 38.84077 | 30.65646 | 35080 ft | 455 kts | 62° |
| 2026-05-05 10:01 | 38.86562 | 30.73136 | 35080 ft | 456 kts | 62° |
| 2026-05-05 10:02 | 38.89048 | 30.80641 | 35079 ft | 456 kts | 62° |
| 2026-05-05 10:02 | 38.91532 | 30.88146 | 35089 ft | 456 kts | 62° |
| 2026-05-05 10:03 | 38.94003 | 30.95631 | 35097 ft | 455 kts | 62° |
| 2026-05-05 10:03 | 38.96469 | 31.03109 | 35107 ft | 454 kts | 62° |
| 2026-05-05 10:04 | 38.98923 | 31.10580 | 35103 ft | 453 kts | 62° |
| 2026-05-05 10:04 | 39.01362 | 31.18022 | 35096 ft | 452 kts | 62° |
| 2026-05-05 10:05 | 39.03780 | 31.25423 | 35122 ft | 451 kts | 62° |
| 2026-05-05 10:05 | 39.06197 | 31.32858 | 35097 ft | 449 kts | 62° |
| 2026-05-05 10:06 | 39.08602 | 31.40271 | 35100 ft | 448 kts | 62° |
| 2026-05-05 10:06 | 39.10997 | 31.47648 | 35087 ft | 447 kts | 62° |
| 2026-05-05 10:07 | 39.13389 | 31.55028 | 35098 ft | 445 kts | 62° |
| 2026-05-05 10:07 | 39.15755 | 31.62375 | 35089 ft | 443 kts | 62° |
| 2026-05-05 10:08 | 39.18094 | 31.69659 | 35076 ft | 442 kts | 62° |
| 2026-05-05 10:08 | 39.20434 | 31.76968 | 35061 ft | 441 kts | 62° |
| 2026-05-05 10:09 | 39.22778 | 31.84287 | 35075 ft | 441 kts | 62° |
| 2026-05-05 10:09 | 39.25113 | 31.91599 | 35062 ft | 440 kts | 62° |
| 2026-05-05 10:10 | 39.27430 | 31.98893 | 35045 ft | 439 kts | 62° |
| 2026-05-05 10:10 | 39.29743 | 32.06203 | 35036 ft | 439 kts | 62° |
| 2026-05-05 10:11 | 39.32046 | 32.13512 | 35045 ft | 439 kts | 63° |
| 2026-05-05 10:11 | 39.34348 | 32.20817 | 35031 ft | 439 kts | 63° |
| 2026-05-05 10:12 | 39.36655 | 32.28140 | 35026 ft | 440 kts | 63° |
| 2026-05-05 10:12 | 39.38938 | 32.35431 | 35034 ft | 440 kts | 63° |
| 2026-05-05 10:13 | 39.41229 | 32.42763 | 35014 ft | 439 kts | 60° |
| 2026-05-05 10:13 | 39.44638 | 32.49150 | 35013 ft | 428 kts | 40° |
| 2026-05-05 10:14 | 39.49398 | 32.53538 | 35003 ft | 419 kts | 22° |
| 2026-05-05 10:14 | 39.54854 | 32.56208 | 35000 ft | 418 kts | 18° |
| 2026-05-05 10:15 | 39.60317 | 32.58782 | 35004 ft | 418 kts | 18° |
| 2026-05-05 10:15 | 39.65788 | 32.61378 | 35008 ft | 418 kts | 18° |
| 2026-05-05 10:16 | 39.71256 | 32.63969 | 35004 ft | 420 kts | 18° |
| 2026-05-05 10:16 | 39.76723 | 32.66565 | 34999 ft | 421 kts | 18° |
| 2026-05-05 10:17 | 39.82228 | 32.69182 | 34999 ft | 422 kts | 18° |
| 2026-05-05 10:17 | 39.87753 | 32.71809 | 34997 ft | 422 kts | 18° |
| 2026-05-05 10:18 | 39.93281 | 32.74443 | 35000 ft | 423 kts | 18° |
| 2026-05-05 10:18 | 39.98812 | 32.77082 | 35001 ft | 423 kts | 18° |
| 2026-05-05 10:19 | 40.04305 | 32.79715 | 34997 ft | 423 kts | 20° |
| 2026-05-05 10:19 | 40.09369 | 32.83630 | 34998 ft | 428 kts | 37° |
| 2026-05-05 10:20 | 40.13899 | 32.88709 | 34999 ft | 429 kts | 38° |
| 2026-05-05 10:20 | 40.18435 | 32.93788 | 34997 ft | 429 kts | 38° |
| 2026-05-05 10:21 | 40.22980 | 32.98869 | 35004 ft | 430 kts | 38° |
| 2026-05-05 10:21 | 40.27527 | 33.03970 | 35001 ft | 430 kts | 38° |
| 2026-05-05 10:22 | 40.32032 | 33.09040 | 35002 ft | 431 kts | 38° |
| 2026-05-05 10:22 | 40.36580 | 33.14171 | 35012 ft | 431 kts | 38° |
| 2026-05-05 10:23 | 40.41120 | 33.19305 | 35007 ft | 431 kts | 38° |
| 2026-05-05 10:23 | 40.45667 | 33.24456 | 35005 ft | 431 kts | 38° |
| 2026-05-05 10:24 | 40.50222 | 33.29612 | 35005 ft | 432 kts | 39° |
| 2026-05-05 10:24 | 40.54776 | 33.34777 | 35003 ft | 433 kts | 39° |
| 2026-05-05 10:25 | 40.59312 | 33.39930 | 35001 ft | 434 kts | 39° |
| 2026-05-05 10:25 | 40.63883 | 33.45143 | 35009 ft | 435 kts | 39° |
| 2026-05-05 10:26 | 40.68460 | 33.50381 | 35008 ft | 436 kts | 39° |
| 2026-05-05 10:26 | 40.73036 | 33.55614 | 34992 ft | 436 kts | 39° |
| 2026-05-05 10:27 | 40.77601 | 33.60845 | 35008 ft | 437 kts | 39° |
| 2026-05-05 10:27 | 40.82203 | 33.66131 | 35007 ft | 439 kts | 39° |
| 2026-05-05 10:28 | 40.86814 | 33.71440 | 35007 ft | 440 kts | 39° |
| 2026-05-05 10:28 | 40.91431 | 33.76764 | 34985 ft | 440 kts | 39° |
| 2026-05-05 10:29 | 40.96045 | 33.82099 | 34986 ft | 442 kts | 39° |
| 2026-05-05 10:29 | 41.00650 | 33.87435 | 35006 ft | 443 kts | 39° |
| 2026-05-05 10:30 | 41.05290 | 33.92819 | 34992 ft | 444 kts | 40° |
| 2026-05-05 10:30 | 41.09934 | 33.98207 | 34988 ft | 444 kts | 40° |
| 2026-05-05 10:31 | 41.14596 | 34.03622 | 34989 ft | 445 kts | 40° |
| 2026-05-05 10:31 | 41.19257 | 34.09062 | 35001 ft | 446 kts | 40° |
| 2026-05-05 10:32 | 41.23922 | 34.14513 | 34995 ft | 446 kts | 40° |
| 2026-05-05 10:32 | 41.28577 | 34.19968 | 34993 ft | 447 kts | 41° |
| 2026-05-05 10:33 | 41.33205 | 34.25404 | 34981 ft | 447 kts | 40° |
| 2026-05-05 10:33 | 41.37854 | 34.30891 | 35016 ft | 446 kts | 40° |
| 2026-05-05 10:34 | 41.42480 | 34.36371 | 35021 ft | 445 kts | 40° |
| 2026-05-05 10:34 | 41.47104 | 34.41849 | 35025 ft | 444 kts | 41° |
| 2026-05-05 10:35 | 41.51729 | 34.47339 | 35014 ft | 444 kts | 40° |
| 2026-05-05 10:35 | 41.56319 | 34.52800 | 35024 ft | 445 kts | 41° |
| 2026-05-05 10:36 | 41.60936 | 34.58283 | 35021 ft | 445 kts | 40° |
| 2026-05-05 10:36 | 41.65584 | 34.63765 | 35020 ft | 445 kts | 40° |
| 2026-05-05 10:37 | 41.70224 | 34.69254 | 35020 ft | 445 kts | 41° |
| 2026-05-05 10:37 | 41.74852 | 34.74758 | 35031 ft | 446 kts | 41° |
| 2026-05-05 10:38 | 41.79463 | 34.80253 | 35036 ft | 445 kts | 41° |
| 2026-05-05 10:38 | 41.84088 | 34.85770 | 35048 ft | 445 kts | 41° |
| 2026-05-05 10:39 | 41.88718 | 34.91305 | 35051 ft | 445 kts | 41° |
| 2026-05-05 10:39 | 41.93355 | 34.96859 | 35056 ft | 445 kts | 41° |
| 2026-05-05 10:40 | 41.97968 | 35.02394 | 35056 ft | 445 kts | 41° |
| 2026-05-05 10:40 | 42.02296 | 35.08334 | 35058 ft | 445 kts | 54° |
| 2026-05-05 10:41 | 42.05327 | 35.15548 | 35057 ft | 446 kts | 62° |
| 2026-05-05 10:41 | 42.08185 | 35.23040 | 35063 ft | 447 kts | 62° |
| 2026-05-05 10:42 | 42.12414 | 35.34144 | 35062 ft | 447 kts | 62° |
| 2026-05-05 10:43 | 42.15239 | 35.41600 | 35060 ft | 447 kts | 62° |
| 2026-05-05 10:43 | 42.18083 | 35.49076 | 35052 ft | 448 kts | 62° |
| 2026-05-05 10:44 | 42.20926 | 35.56541 | 35052 ft | 449 kts | 62° |
| 2026-05-05 10:44 | 42.23777 | 35.64065 | 35053 ft | 449 kts | 63° |
| 2026-05-05 10:45 | 42.26616 | 35.71582 | 35053 ft | 449 kts | 63° |
| 2026-05-05 10:45 | 42.29440 | 35.79091 | 35052 ft | 449 kts | 63° |
| 2026-05-05 10:46 | 42.32248 | 35.86571 | 35053 ft | 449 kts | 63° |
| 2026-05-05 10:46 | 42.35079 | 35.94126 | 35057 ft | 449 kts | 63° |
| 2026-05-05 10:47 | 42.37897 | 36.01667 | 35056 ft | 449 kts | 63° |
| 2026-05-05 10:47 | 42.40705 | 36.09206 | 35059 ft | 449 kts | 63° |
| 2026-05-05 10:48 | 42.43496 | 36.16712 | 35060 ft | 449 kts | 63° |
| 2026-05-05 10:48 | 42.46293 | 36.24261 | 35061 ft | 449 kts | 63° |
| 2026-05-05 10:49 | 42.49094 | 36.31831 | 35059 ft | 449 kts | 64° |
| 2026-05-05 10:49 | 42.51885 | 36.39395 | 35053 ft | 449 kts | 64° |
| 2026-05-05 10:50 | 42.54675 | 36.46995 | 35049 ft | 450 kts | 64° |
| 2026-05-05 10:50 | 42.57458 | 36.54590 | 35044 ft | 450 kts | 64° |
| 2026-05-05 10:51 | 42.60249 | 36.62209 | 35044 ft | 450 kts | 64° |
| 2026-05-05 10:51 | 42.62560 | 36.68540 | 35044 ft | 450 kts | 64° |
| 2026-05-05 10:52 | 42.65336 | 36.76174 | 35044 ft | 450 kts | 64° |
| 2026-05-05 10:52 | 42.68113 | 36.83813 | 35043 ft | 450 kts | 64° |
| 2026-05-05 10:53 | 42.70883 | 36.91461 | 35039 ft | 450 kts | 65° |
| 2026-05-05 10:53 | 42.73414 | 36.99181 | 35041 ft | 450 kts | 68° |
| 2026-05-05 10:54 | 42.75758 | 37.07093 | 35043 ft | 450 kts | 69° |
| 2026-05-05 10:54 | 42.78112 | 37.15008 | 35043 ft | 451 kts | 68° |
| 2026-05-05 10:55 | 42.80515 | 37.22886 | 35041 ft | 451 kts | 68° |
| 2026-05-05 10:55 | 42.82929 | 37.30780 | 35040 ft | 451 kts | 68° |
| 2026-05-05 10:56 | 42.85316 | 37.38647 | 35043 ft | 452 kts | 68° |
| 2026-05-05 10:56 | 42.87710 | 37.46563 | 35045 ft | 452 kts | 68° |
| 2026-05-05 10:57 | 42.90108 | 37.54502 | 35041 ft | 452 kts | 69° |
| 2026-05-05 10:57 | 42.92497 | 37.62451 | 35046 ft | 452 kts | 69° |
| 2026-05-05 10:58 | 42.94879 | 37.70403 | 35039 ft | 452 kts | 69° |
| 2026-05-05 10:58 | 42.97251 | 37.78346 | 35050 ft | 452 kts | 69° |
| 2026-05-05 10:59 | 42.99592 | 37.86264 | 35054 ft | 452 kts | 69° |
| 2026-05-05 10:59 | 43.01950 | 37.94242 | 35045 ft | 452 kts | 69° |
| 2026-05-05 11:00 | 43.04288 | 38.02209 | 35051 ft | 452 kts | 69° |
| 2026-05-05 11:00 | 43.06614 | 38.10201 | 35050 ft | 452 kts | 69° |
| 2026-05-05 11:01 | 43.08933 | 38.18181 | 35050 ft | 452 kts | 69° |
| 2026-05-05 11:01 | 43.11265 | 38.26180 | 35045 ft | 452 kts | 69° |
| 2026-05-05 11:02 | 43.13601 | 38.34161 | 35043 ft | 452 kts | 69° |
| 2026-05-05 11:02 | 43.15939 | 38.42160 | 35037 ft | 452 kts | 69° |
| 2026-05-05 11:03 | 43.18265 | 38.50150 | 35040 ft | 452 kts | 69° |
| 2026-05-05 11:03 | 43.20588 | 38.58163 | 35036 ft | 452 kts | 70° |
| 2026-05-05 11:04 | 43.22885 | 38.66131 | 35032 ft | 452 kts | 70° |
| 2026-05-05 11:04 | 43.25192 | 38.74137 | 35034 ft | 452 kts | 70° |
| 2026-05-05 11:05 | 43.27489 | 38.82161 | 35032 ft | 452 kts | 70° |
| 2026-05-05 11:05 | 43.29758 | 38.90210 | 35022 ft | 451 kts | 70° |
| 2026-05-05 11:06 | 43.32003 | 38.98258 | 35017 ft | 452 kts | 70° |
| 2026-05-05 11:06 | 43.34262 | 39.06346 | 35012 ft | 453 kts | 70° |
| 2026-05-05 11:07 | 43.36668 | 39.14375 | 35009 ft | 454 kts | 67° |
| 2026-05-05 11:07 | 43.39374 | 39.22225 | 35006 ft | 455 kts | 66° |
| 2026-05-05 11:08 | 43.42107 | 39.30028 | 35004 ft | 455 kts | 66° |
| 2026-05-05 11:08 | 43.44787 | 39.37924 | 35008 ft | 455 kts | 67° |
| 2026-05-05 11:09 | 43.47425 | 39.45839 | 35011 ft | 455 kts | 67° |
| 2026-05-05 11:09 | 43.50067 | 39.53779 | 35001 ft | 455 kts | 67° |
| 2026-05-05 11:10 | 43.52705 | 39.61700 | 35008 ft | 455 kts | 67° |
| 2026-05-05 11:10 | 43.55338 | 39.69646 | 35010 ft | 455 kts | 67° |
| 2026-05-05 11:11 | 43.57961 | 39.77607 | 35003 ft | 456 kts | 67° |
| 2026-05-05 11:11 | 43.60572 | 39.85557 | 34998 ft | 455 kts | 67° |
| 2026-05-05 11:12 | 43.63168 | 39.93473 | 34989 ft | 455 kts | 67° |
| 2026-05-05 11:12 | 43.65772 | 40.01462 | 34978 ft | 456 kts | 68° |
| 2026-05-05 11:13 | 43.68366 | 40.09459 | 34976 ft | 458 kts | 68° |
| 2026-05-05 11:13 | 43.70968 | 40.17496 | 34961 ft | 458 kts | 68° |
| 2026-05-05 11:14 | 43.73574 | 40.25556 | 34970 ft | 459 kts | 68° |
| 2026-05-05 11:14 | 43.76181 | 40.33626 | 34967 ft | 459 kts | 68° |
| 2026-05-05 11:15 | 43.78777 | 40.41689 | 34965 ft | 459 kts | 68° |
| 2026-05-05 11:15 | 43.81370 | 40.49776 | 34978 ft | 459 kts | 68° |
| 2026-05-05 11:16 | 43.83945 | 40.57855 | 34974 ft | 457 kts | 68° |
| 2026-05-05 11:16 | 43.85224 | 40.61881 | 34837 ft | 457 kts | 68° |
| 2026-05-05 11:16 | 43.86498 | 40.65888 | 34568 ft | 451 kts | 68° |
| 2026-05-05 11:16 | 43.87590 | 40.69914 | 34216 ft | 443 kts | 76° |
| 2026-05-05 11:17 | 43.88222 | 40.74002 | 33854 ft | 434 kts | 84° |
| 2026-05-05 11:17 | 43.88461 | 40.78133 | 33380 ft | 427 kts | 88° |
| 2026-05-05 11:17 | 43.88633 | 40.82217 | 32937 ft | 422 kts | 88° |
| 2026-05-05 11:17 | 43.88804 | 40.86256 | 32477 ft | 418 kts | 89° |
| 2026-05-05 11:18 | 43.88976 | 40.90269 | 31997 ft | 414 kts | 89° |
| 2026-05-05 11:18 | 43.89148 | 40.94232 | 31507 ft | 411 kts | 89° |
| 2026-05-05 11:18 | 43.89321 | 40.98166 | 30975 ft | 408 kts | 89° |
| 2026-05-05 11:18 | 43.89493 | 41.02085 | 30426 ft | 406 kts | 89° |
| 2026-05-05 11:19 | 43.89658 | 41.05974 | 29882 ft | 403 kts | 89° |
| 2026-05-05 11:19 | 43.89818 | 41.09860 | 29178 ft | 402 kts | 89° |
| 2026-05-05 11:19 | 43.89975 | 41.13721 | 28476 ft | 401 kts | 89° |
| 2026-05-05 11:19 | 43.90130 | 41.17588 | 27790 ft | 400 kts | 89° |
| 2026-05-05 11:20 | 43.90284 | 41.21429 | 27128 ft | 399 kts | 89° |
| 2026-05-05 11:20 | 43.90436 | 41.25228 | 26482 ft | 398 kts | 89° |
| 2026-05-05 11:20 | 43.90590 | 41.29060 | 25845 ft | 398 kts | 89° |
| 2026-05-05 11:20 | 43.90744 | 41.32885 | 25233 ft | 397 kts | 89° |
| 2026-05-05 11:21 | 43.90897 | 41.36707 | 24658 ft | 394 kts | 89° |
| 2026-05-05 11:21 | 43.91048 | 41.40491 | 24100 ft | 393 kts | 89° |
| 2026-05-05 11:21 | 43.91196 | 41.44259 | 23572 ft | 391 kts | 89° |
| 2026-05-05 11:21 | 43.91341 | 41.48029 | 22937 ft | 389 kts | 89° |
| 2026-05-05 11:22 | 43.91480 | 41.51762 | 22371 ft | 387 kts | 89° |
| 2026-05-05 11:22 | 43.91618 | 41.55466 | 21839 ft | 384 kts | 89° |
| 2026-05-05 11:22 | 43.91756 | 41.59142 | 21312 ft | 381 kts | 89° |
| 2026-05-05 11:22 | 43.91889 | 41.62763 | 20804 ft | 379 kts | 89° |
| 2026-05-05 11:23 | 43.92018 | 41.66393 | 20288 ft | 376 kts | 89° |
| 2026-05-05 11:23 | 43.92141 | 41.70003 | 19788 ft | 374 kts | 90° |
| 2026-05-05 11:23 | 43.92262 | 41.73610 | 19298 ft | 372 kts | 89° |
| 2026-05-05 11:23 | 43.92383 | 41.77186 | 18813 ft | 371 kts | 89° |
| 2026-05-05 11:24 | 43.92506 | 41.80744 | 18396 ft | 368 kts | 89° |
| 2026-05-05 11:24 | 43.92629 | 41.84289 | 17955 ft | 365 kts | 89° |
| 2026-05-05 11:24 | 43.92749 | 41.87785 | 17529 ft | 361 kts | 89° |
| 2026-05-05 11:24 | 43.92866 | 41.91242 | 17110 ft | 357 kts | 89° |
| 2026-05-05 11:25 | 43.92980 | 41.94663 | 16729 ft | 354 kts | 89° |
| 2026-05-05 11:25 | 43.93090 | 41.98065 | 16335 ft | 350 kts | 89° |
| 2026-05-05 11:25 | 43.93198 | 42.01418 | 15942 ft | 347 kts | 89° |
| 2026-05-05 11:25 | 43.93304 | 42.04745 | 15541 ft | 345 kts | 89° |
| 2026-05-05 11:26 | 43.93408 | 42.08066 | 15099 ft | 345 kts | 89° |
| 2026-05-05 11:26 | 43.93510 | 42.11385 | 14652 ft | 345 kts | 89° |
| 2026-05-05 11:26 | 43.93609 | 42.14670 | 14219 ft | 344 kts | 89° |
| 2026-05-05 11:26 | 43.93710 | 42.17979 | 13788 ft | 343 kts | 89° |
| 2026-05-05 11:27 | 43.93811 | 42.21273 | 13533 ft | 336 kts | 89° |
| 2026-05-05 11:27 | 43.93909 | 42.24460 | 13396 ft | 326 kts | 89° |
| 2026-05-05 11:27 | 43.94002 | 42.27542 | 13269 ft | 316 kts | 89° |
| 2026-05-05 11:27 | 43.94092 | 42.30550 | 13134 ft | 307 kts | 89° |
| 2026-05-05 11:28 | 43.94178 | 42.33463 | 12998 ft | 298 kts | 89° |
| 2026-05-05 11:28 | 43.94261 | 42.36297 | 12866 ft | 290 kts | 89° |
| 2026-05-05 11:28 | 43.94340 | 42.39071 | 12725 ft | 283 kts | 89° |
| 2026-05-05 11:28 | 43.94415 | 42.41787 | 12458 ft | 281 kts | 89° |
| 2026-05-05 11:29 | 43.94491 | 42.44503 | 12135 ft | 281 kts | 89° |
| 2026-05-05 11:29 | 43.94565 | 42.47200 | 11846 ft | 280 kts | 89° |
| 2026-05-05 11:29 | 43.94639 | 42.49887 | 11544 ft | 278 kts | 88° |
| 2026-05-05 11:29 | 43.94712 | 42.52561 | 11244 ft | 277 kts | 88° |
| 2026-05-05 11:30 | 43.94785 | 42.55223 | 10940 ft | 276 kts | 88° |
| 2026-05-05 11:30 | 43.94884 | 42.57879 | 10644 ft | 274 kts | 82° |
| 2026-05-05 11:30 | 43.95431 | 42.60379 | 10358 ft | 271 kts | 61° |
| 2026-05-05 11:30 | 43.96533 | 42.62458 | 10059 ft | 267 kts | 41° |
| 2026-05-05 11:31 | 43.98045 | 42.63906 | 9777 ft | 262 kts | 22° |
| 2026-05-05 11:31 | 43.99720 | 42.64747 | 9466 ft | 258 kts | 17° |
| 2026-05-05 11:31 | 44.01413 | 42.65550 | 9145 ft | 256 kts | 17° |
| 2026-05-05 11:31 | 44.03098 | 42.66356 | 8827 ft | 254 kts | 17° |
| 2026-05-05 11:32 | 44.04762 | 42.67155 | 8519 ft | 252 kts | 17° |
| 2026-05-05 11:32 | 44.06412 | 42.67948 | 8232 ft | 250 kts | 17° |
| 2026-05-05 11:32 | 44.08057 | 42.68737 | 7915 ft | 249 kts | 17° |
| 2026-05-05 11:32 | 44.09686 | 42.69515 | 7605 ft | 247 kts | 17° |
| 2026-05-05 11:33 | 44.11300 | 42.70288 | 7378 ft | 243 kts | 17° |
| 2026-05-05 11:33 | 44.12894 | 42.71055 | 7149 ft | 240 kts | 17° |
| 2026-05-05 11:33 | 44.14463 | 42.71811 | 6932 ft | 238 kts | 18° |
| 2026-05-05 11:33 | 44.16030 | 42.72565 | 6713 ft | 237 kts | 18° |
| 2026-05-05 11:34 | 44.17561 | 42.73304 | 6501 ft | 236 kts | 18° |
| 2026-05-05 11:34 | 44.19111 | 42.74051 | 6271 ft | 234 kts | 19° |
| 2026-05-05 11:34 | 44.20648 | 42.74789 | 6038 ft | 233 kts | 19° |
| 2026-05-05 11:34 | 44.22177 | 42.75522 | 5809 ft | 232 kts | 19° |
| 2026-05-05 11:35 | 44.23709 | 42.76258 | 5577 ft | 232 kts | 20° |
| 2026-05-05 11:35 | 44.25153 | 42.77244 | 5348 ft | 231 kts | 33° |
| 2026-05-05 11:35 | 44.26495 | 42.78418 | 5128 ft | 225 kts | 32° |
| 2026-05-05 11:35 | 44.27811 | 42.79565 | 4901 ft | 221 kts | 32° |
| 2026-05-05 11:36 | 44.29089 | 42.80676 | 4698 ft | 216 kts | 32° |
| 2026-05-05 11:36 | 44.30335 | 42.81844 | 4505 ft | 211 kts | 42° |
| 2026-05-05 11:36 | 44.31252 | 42.83393 | 4324 ft | 206 kts | 62° |
| 2026-05-05 11:36 | 44.31738 | 42.85230 | 4143 ft | 200 kts | 81° |
| 2026-05-05 11:37 | 44.31770 | 42.87150 | 3956 ft | 195 kts | 98° |
| 2026-05-05 11:37 | 44.31391 | 42.88900 | 3804 ft | 187 kts | 115° |
| 2026-05-05 11:37 | 44.30745 | 42.90402 | 3647 ft | 173 kts | 121° |
| 2026-05-05 11:37 | 44.30114 | 42.91807 | 3464 ft | 164 kts | 121° |
| 2026-05-05 11:38 | 44.29544 | 42.93077 | 3277 ft | 152 kts | 120° |
| 2026-05-05 11:38 | 44.29001 | 42.94284 | 3096 ft | 141 kts | 119° |
| 2026-05-05 11:38 | 44.28489 | 42.95422 | 2897 ft | 138 kts | 119° |
| 2026-05-05 11:38 | 44.27974 | 42.96565 | 2720 ft | 138 kts | 120° |
| 2026-05-05 11:39 | 44.27464 | 42.97705 | 2517 ft | 139 kts | 121° |
| 2026-05-05 11:39 | 44.26958 | 42.98848 | 2344 ft | 136 kts | 120° |
| 2026-05-05 11:39 | 44.26454 | 42.99966 | 2122 ft | 137 kts | 119° |
| 2026-05-05 11:39 | 44.25944 | 43.01089 | 1921 ft | 137 kts | 121° |
| 2026-05-05 11:40 | 44.25434 | 43.02219 | 1722 ft | 138 kts | 122° |
| 2026-05-05 11:40 | 44.24923 | 43.03349 | 1515 ft | 138 kts | 121° |
| 2026-05-05 11:40 | 44.24418 | 43.04458 | 1355 ft | 137 kts | 122° |
| 2026-05-05 11:40 | 44.23908 | 43.05580 | 1198 ft | 138 kts | 122° |
| 2026-05-05 11:41 | 44.23402 | 43.06707 | 1053 ft | 131 kts | 123° |
| 2026-05-05 11:41 | 44.23001 | 43.07609 | 1051 ft | 85 kts | 123° |
| 2026-05-05 11:41 | 44.22737 | 43.08185 | 1050 ft | 61 kts | 122° |
| 2026-05-05 11:41 | 44.22575 | 43.08536 | 1053 ft | 33 kts | 121° |
| 2026-05-05 11:42 | 44.22462 | 43.08745 | 1055 ft | 27 kts | 139° |
| 2026-05-05 11:42 | 44.22308 | 43.08879 | 1052 ft | 13 kts | 152° |
| 2026-05-05 11:42 | 44.22273 | 43.08905 | 1053 ft | 6 kts | 152° |
| 2026-05-05 11:42 | 44.22224 | 43.08942 | 1053 ft | 10 kts | 152° |
| 2026-05-05 11:43 | 44.22154 | 43.08994 | 1053 ft | 13 kts | 152° |
| 2026-05-05 11:43 | 44.22060 | 43.09063 | 1052 ft | 17 kts | 152° |
| 2026-05-05 11:43 | 44.21968 | 43.09131 | 1051 ft | 12 kts | 153° |
| 2026-05-05 11:43 | 44.21887 | 43.09085 | 1051 ft | 13 kts | 212° |
| 2026-05-05 11:44 | 44.21860 | 43.08996 | 1051 ft | 12 kts | 290° |
| 2026-05-05 11:44 | 44.21905 | 43.08895 | 1051 ft | 11 kts | 302° |
| 2026-05-05 11:44 | 44.21940 | 43.08810 | 1051 ft | 10 kts | 291° |
| 2026-05-05 11:44 | 44.21904 | 43.08762 | 1053 ft | 6 kts | 212° |
| 2026-05-05 11:45 | 44.21886 | 43.08745 | 1051 ft | 3 kts | 212° |
| 2026-05-05 11:45 | 44.21876 | 43.08737 | 1051 ft | 0 kts | 212° |